Terminal Aerodrome Forecast
Issued by NWS Cleveland, OH

Home | Current Version | Previous Version | Graphics & Text | Print | Product List | Glossary On
Versions: 1 2 3 4 5 6 7 8 9 10 11 12 13 14 15 16 17 18 19 20 21 22 23 24 25 26 27 28 29 30 31 32 33 34
000
FTUS41 KCLE 210500
TAFCLE
TAF
KCLE 210540Z 2106/2212 21010KT P6SM SCT050 OVC100
     FM210900 22012KT P6SM SCT020 BKN040
      TEMPO 2109/2112 6SM -SHRA
     FM211200 23012KT P6SM BKN020 OVC040
     FM211500 26012G20KT P6SM OVC025
     FM212000 30015G22KT P6SM VCSH BKN025
     FM220100 33012KT P6SM VCSH BKN030=

USA.gov is the U.S. government's official web portal to all federal, state and local government web resources and services.